Time;durP1;ratioP1;P1;durP2;ratioP2;P2;SDS_P1;SDS_P2;PMS_P1;PMS_P2;Temp;Humidity;BMP_temperature;BMP_pressure;BME280_temperature;BME280_humidity;BME280_pressure;Samples;Min_cycle;Max_cycle;Signal;HPM_P1;HPM_P2
2021/01/11 00:01:46;;;;;;;24.98;12.40;;;;;;;-4.30;73.57;97112.44;5065846;28;20064;-60
2021/01/11 00:04:11;;;;;;;22.75;11.63;;;;;;;-4.32;74.11;97108.41;5046766;28;20037;-60
2021/01/11 00:06:40;;;;;;;24.00;12.85;;;;;;;-4.33;74.03;97110.28;5058652;28;20101;-60
2021/01/11 00:09:07;;;;;;;25.38;13.68;;;;;;;-4.32;73.79;97103.06;5055396;28;20122;-60
2021/01/11 00:11:35;;;;;;;25.98;13.05;;;;;;;-4.30;74.10;97111.66;5060864;28;20033;-59
2021/01/11 00:14:02;;;;;;;28.38;12.98;;;;;;;-4.35;74.98;97115.09;5061301;28;20040;-61
2021/01/11 00:16:27;;;;;;;31.45;13.10;;;;;;;-4.32;74.15;97111.09;5053752;28;20451;-61
2021/01/11 00:18:52;;;;;;;28.45;12.95;;;;;;;-4.32;74.02;97105.75;5055491;28;20040;-62
2021/01/11 00:21:18;;;;;;;27.73;13.55;;;;;;;-4.34;73.89;97105.19;5034525;28;20374;-61
2021/01/11 00:23:43;;;;;;;31.48;14.57;;;;;;;-4.31;73.61;97102.00;5060995;28;20041;-62
2021/01/11 00:26:10;;;;;;;30.63;13.82;;;;;;;-4.31;73.80;97102.81;5055528;28;20064;-61
2021/01/11 00:28:36;;;;;;;29.90;14.50;;;;;;;-4.30;74.19;97100.97;5054324;28;20076;-58
2021/01/11 00:31:01;;;;;;;33.70;13.88;;;;;;;-4.34;74.55;97098.00;5058257;28;20111;-64
2021/01/11 00:33:27;;;;;;;29.25;14.38;;;;;;;-4.35;74.29;97103.59;5053154;28;20048;-63
2021/01/11 00:35:52;;;;;;;29.75;12.55;;;;;;;-4.34;74.53;97106.03;5065970;28;20397;-62
2021/01/11 00:38:17;;;;;;;23.50;11.70;;;;;;;-4.33;74.21;97102.25;5053589;28;20067;-58
2021/01/11 00:40:43;;;;;;;28.40;13.43;;;;;;;-4.39;74.87;97103.31;5070241;28;20607;-64
2021/01/11 00:43:10;;;;;;;30.95;13.35;;;;;;;-4.37;74.42;97095.84;5064517;28;20037;-60
2021/01/11 00:45:35;;;;;;;27.60;11.90;;;;;;;-4.36;74.85;97092.09;5056684;28;20501;-61
2021/01/11 00:48:00;;;;;;;30.77;14.45;;;;;;;-4.29;73.62;97099.88;5064036;28;20041;-61
2021/01/11 00:50:26;;;;;;;27.23;13.18;;;;;;;-4.39;74.21;97100.66;5054857;28;20033;-58
2021/01/11 00:52:51;;;;;;;32.70;12.27;;;;;;;-4.41;74.70;97105.47;5042129;28;20382;-62
2021/01/11 00:55:16;;;;;;;27.67;13.15;;;;;;;-4.43;76.03;97107.56;5055396;28;20510;-58
2021/01/11 00:57:42;;;;;;;29.58;13.45;;;;;;;-4.44;75.90;97100.63;5040367;28;20580;-60
2021/01/11 01:00:11;;;;;;;31.17;13.02;;;;;;;-4.41;75.91;97110.81;5046243;28;20762;-61
2021/01/11 01:02:36;;;;;;;32.13;14.23;;;;;;;-4.55;76.75;97099.75;5060409;28;20502;-60
2021/01/11 01:05:01;;;;;;;31.73;13.75;;;;;;;-4.51;77.20;97108.88;5060382;28;20175;-60
2021/01/11 01:07:27;;;;;;;31.35;13.88;;;;;;;-4.49;76.13;97113.97;5055535;28;20135;-59
2021/01/11 01:09:52;;;;;;;30.70;14.25;;;;;;;-4.55;76.25;97113.13;5053226;28;20098;-61
2021/01/11 01:12:19;;;;;;;29.85;13.63;;;;;;;-4.62;77.01;97113.34;5050257;28;20108;-62
2021/01/11 01:14:44;;;;;;;33.97;14.43;;;;;;;-4.63;76.62;97117.09;5060728;28;20473;-61
2021/01/11 01:17:10;;;;;;;30.08;13.82;;;;;;;-4.65;77.44;97118.41;5055202;28;20052;-61
2021/01/11 01:19:35;;;;;;;30.55;13.07;;;;;;;-4.70;77.28;97123.72;5060442;28;20048;-61
2021/01/11 01:22:01;;;;;;;31.50;14.70;;;;;;;-4.69;77.04;97114.66;5076819;28;20051;-63
2021/01/11 01:24:26;;;;;;;36.15;14.70;;;;;;;-4.71;76.99;97128.25;5048903;28;20053;-59
2021/01/11 01:26:51;;;;;;;27.58;12.88;;;;;;;-4.71;77.66;97122.13;5066907;28;20036;-61
2021/01/11 01:29:17;;;;;;;34.28;13.60;;;;;;;-4.76;76.67;97120.22;5059691;28;20407;-60
2021/01/11 01:31:43;;;;;;;31.23;12.73;;;;;;;-4.73;76.58;97127.72;5060919;28;20064;-60
2021/01/11 01:34:08;;;;;;;29.33;12.38;;;;;;;-4.67;76.57;97117.88;5024928;28;20044;-62
2021/01/11 01:36:33;;;;;;;27.83;12.75;;;;;;;-4.75;76.28;97115.66;5064199;28;20052;-60
2021/01/11 01:38:59;;;;;;;29.88;12.82;;;;;;;-4.74;76.15;97122.63;5057640;28;20049;-61
2021/01/11 01:41:24;;;;;;;27.27;13.23;;;;;;;-4.77;76.16;97134.66;5057416;28;20135;-58
2021/01/11 01:43:49;;;;;;;33.15;15.75;;;;;;;-4.80;76.19;97130.59;5066303;28;20033;-59
2021/01/11 01:46:18;;;;;;;30.35;14.20;;;;;;;-4.80;76.30;97133.28;5049227;28;20420;-59
2021/01/11 01:48:44;;;;;;;25.40;12.85;;;;;;;-4.69;75.80;97126.13;5053261;28;20036;-62
2021/01/11 01:51:10;;;;;;;30.40;12.45;;;;;;;-4.65;75.44;97139.78;5051543;28;20029;-61
2021/01/11 01:53:36;;;;;;;28.38;13.30;;;;;;;-4.73;75.82;97133.06;5063697;28;20051;-62
2021/01/11 01:56:02;;;;;;;30.33;12.57;;;;;;;-4.75;75.70;97134.38;5059685;28;20667;-62
2021/01/11 01:58:27;;;;;;;25.85;12.23;;;;;;;-4.82;76.53;97135.41;5063432;28;20055;-63
2021/01/11 02:00:53;;;;;;;29.98;13.10;;;;;;;-4.86;76.36;97133.50;5088226;28;20070;-62
2021/01/11 02:03:18;;;;;;;31.65;13.57;;;;;;;-4.86;76.29;97139.66;5046361;28;20090;-61
2021/01/11 02:05:44;;;;;;;31.05;13.90;;;;;;;-4.88;76.46;97128.44;5056256;28;20568;-59
2021/01/11 02:08:19;;;;;;;29.00;12.95;;;;;;;-4.88;76.46;97131.09;5038020;28;20076;-60
2021/01/11 02:10:50;;;;;;;37.45;13.98;;;;;;;-4.91;76.82;97134.28;5051072;28;20049;-62
2021/01/11 02:13:30;;;;;;;31.25;15.18;;;;;;;-4.92;76.60;97119.28;5036149;28;20037;-60
2021/01/11 02:16:08;;;;;;;30.55;14.25;;;;;;;-4.96;76.93;97128.91;5043774;28;20139;-60
2021/01/11 02:18:45;;;;;;;29.63;14.00;;;;;;;-4.94;76.91;97126.78;5052371;28;20126;-62
2021/01/11 02:21:35;;;;;;;28.35;13.75;;;;;;;-4.94;76.25;97132.09;5058432;28;20051;-60
2021/01/11 02:24:42;;;;;;;35.60;14.07;;;;;;;-4.95;76.34;97135.88;5063689;28;20064;-62
2021/01/11 02:27:27;;;;;;;33.53;14.35;;;;;;;-4.97;76.86;97137.97;5058007;28;20044;-60
2021/01/11 02:30:04;;;;;;;30.70;14.18;;;;;;;-4.97;77.05;97129.94;5081262;28;20082;-61
2021/01/11 02:32:30;;;;;;;34.95;13.18;;;;;;;-4.97;77.20;97123.81;5081917;28;20389;-61
2021/01/11 02:34:59;;;;;;;27.75;13.02;;;;;;;-4.98;77.77;97128.34;5079684;28;20040;-62
2021/01/11 02:37:24;;;;;;;33.50;15.53;;;;;;;-5.01;77.30;97126.97;5077920;28;20040;-60
2021/01/11 02:39:51;;;;;;;28.85;12.98;;;;;;;-4.99;75.45;97126.72;5082350;28;20115;-61
2021/01/11 02:42:16;;;;;;;29.02;12.45;;;;;;;-4.94;74.80;97124.09;5077207;28;20046;-61
2021/01/11 02:44:42;;;;;;;25.40;12.63;;;;;;;-4.93;75.24;97127.56;5081964;28;20047;-63
2021/01/11 02:47:08;;;;;;;30.58;13.07;;;;;;;-4.99;75.61;97129.41;5062624;28;20505;-62
2021/01/11 02:49:41;;;;;;;31.77;13.27;;;;;;;-5.02;76.22;97122.72;5062510;28;20056;-61
2021/01/11 02:52:39;;;;;;;23.95;12.73;;;;;;;-5.04;75.51;97126.69;5056914;28;20051;-61
2021/01/11 02:55:11;;;;;;;27.67;11.77;;;;;;;-5.02;75.73;97129.94;5056766;28;20062;-62
2021/01/11 02:57:56;;;;;;;28.98;13.30;;;;;;;-4.98;75.62;97128.34;5062994;28;20439;-63
2021/01/11 03:00:22;;;;;;;28.05;13.32;;;;;;;-5.01;75.91;97132.31;5057474;28;21069;-62
2021/01/11 03:02:48;;;;;;;32.58;13.60;;;;;;;-5.03;76.56;97121.09;5062378;28;20434;-61
2021/01/11 03:05:15;;;;;;;31.30;13.80;;;;;;;-5.10;76.78;97130.38;5040479;28;20037;-62
2021/01/11 03:07:56;;;;;;;27.75;13.18;;;;;;;-5.11;77.26;97124.25;5062736;28;20044;-65
2021/01/11 03:10:22;;;;;;;32.58;14.80;;;;;;;-5.07;76.38;97129.88;5074648;28;20640;-63
2021/01/11 03:12:48;;;;;;;28.85;12.25;;;;;;;-5.06;76.26;97123.47;5074082;28;20045;-63
2021/01/11 03:15:15;;;;;;;32.92;14.77;;;;;;;-5.12;76.59;97129.84;5061407;28;20068;-63
2021/01/11 03:17:40;;;;;;;33.45;14.00;;;;;;;-5.12;76.19;97130.63;5083500;28;20592;-62
2021/01/11 03:20:06;;;;;;;24.98;12.70;;;;;;;-5.08;76.21;97125.59;5057574;28;20079;-61
2021/01/11 03:22:32;;;;;;;30.33;14.07;;;;;;;-5.24;77.47;97132.66;5061822;28;20047;-61
2021/01/11 03:24:57;;;;;;;33.85;14.70;;;;;;;-5.38;76.88;97119.75;5066578;28;20040;-59
2021/01/11 03:27:23;;;;;;;35.70;13.98;;;;;;;-5.45;77.90;97121.81;5058561;28;20075;-61
2021/01/11 03:29:48;;;;;;;31.08;14.02;;;;;;;-5.50;77.78;97119.09;5079157;28;20382;-62
2021/01/11 03:32:13;;;;;;;30.95;13.57;;;;;;;-5.36;77.21;97116.03;5076838;28;20123;-62
2021/01/11 03:34:39;;;;;;;35.90;14.98;;;;;;;-5.49;77.43;97110.03;5082460;28;20040;-61
2021/01/11 03:37:04;;;;;;;33.83;13.43;;;;;;;-5.58;78.54;97109.69;5077038;28;20504;-60
2021/01/11 03:39:30;;;;;;;30.92;13.68;;;;;;;-5.58;78.64;97108.91;5071481;28;20040;-62
2021/01/11 03:41:55;;;;;;;34.17;15.63;;;;;;;-5.64;78.77;97117.91;5094581;28;20442;-61
2021/01/11 03:44:20;;;;;;;33.42;14.25;;;;;;;-5.60;78.19;97106.47;5066404;28;20131;-61
2021/01/11 03:46:46;;;;;;;37.22;16.83;;;;;;;-5.73;79.09;97112.19;5081397;28;20366;-62
2021/01/11 03:49:11;;;;;;;30.65;14.55;;;;;;;-5.71;79.06;97122.63;5057024;28;20040;-62
2021/01/11 03:51:37;;;;;;;37.00;15.93;;;;;;;-5.73;79.45;97117.53;5058812;28;20518;-62
2021/01/11 03:54:02;;;;;;;32.53;14.52;;;;;;;-5.70;78.97;97111.72;5059868;28;20047;-61
2021/01/11 03:56:28;;;;;;;35.03;15.13;;;;;;;-5.76;79.61;97112.72;5056455;28;20516;-61
2021/01/11 03:58:53;;;;;;;36.15;15.25;;;;;;;-5.80;79.69;97112.41;5060416;28;20041;-59
2021/01/11 04:01:19;;;;;;;41.45;15.57;;;;;;;-5.71;79.66;97099.41;5053481;28;20477;-59
2021/01/11 04:03:44;;;;;;;34.95;15.30;;;;;;;-5.80;80.03;97099.09;5061231;28;20040;-63
2021/01/11 04:06:10;;;;;;;37.17;14.55;;;;;;;-5.83;80.18;97101.44;5055665;28;20401;-60
2021/01/11 04:08:36;;;;;;;39.10;15.35;;;;;;;-5.81;80.17;97105.47;5061182;28;20040;-60
2021/01/11 04:11:01;;;;;;;37.53;14.27;;;;;;;-5.79;80.69;97105.22;5061252;28;20385;-62
2021/01/11 04:13:27;;;;;;;36.90;15.73;;;;;;;-5.86;80.24;97113.41;5054686;28;20037;-63
2021/01/11 04:15:53;;;;;;;33.28;14.38;;;;;;;-5.87;80.92;97109.16;5061578;28;20040;-59
2021/01/11 04:18:18;;;;;;;35.13;16.17;;;;;;;-5.88;80.60;97099.53;5056705;28;20032;-61
2021/01/11 04:20:44;;;;;;;35.90;15.35;;;;;;;-5.86;79.97;97109.94;5070404;28;20071;-63
2021/01/11 04:23:09;;;;;;;39.08;16.50;;;;;;;-5.85;80.19;97111.53;5073493;28;20045;-61
2021/01/11 04:25:35;;;;;;;40.13;17.13;;;;;;;-5.88;80.75;97118.19;5076965;28;20400;-64
2021/01/11 04:28:03;;;;;;;38.75;16.55;;;;;;;-5.90;80.49;97112.31;5062861;28;20048;-62
2021/01/11 04:30:28;;;;;;;34.55;15.25;;;;;;;-5.79;80.68;97111.34;5077230;28;20050;-61
2021/01/11 04:32:55;;;;;;;38.80;15.10;;;;;;;-5.82;80.55;97111.84;5078915;28;20044;-63
2021/01/11 04:35:22;;;;;;;36.78;14.43;;;;;;;-5.85;80.80;97111.53;5075650;28;20040;-60
2021/01/11 04:37:47;;;;;;;37.83;15.00;;;;;;;-5.87;80.53;97111.81;5080975;28;20036;-60
2021/01/11 04:40:13;;;;;;;33.88;14.60;;;;;;;-5.85;80.65;97115.03;5074221;28;20085;-61
2021/01/11 04:42:56;;;;;;;37.03;16.80;;;;;;;-5.78;80.45;97117.47;5080442;28;20473;-60
2021/01/11 04:45:23;;;;;;;39.75;16.95;;;;;;;-5.93;81.12;97106.66;5075889;28;20475;-61
2021/01/11 04:47:55;;;;;;;36.92;16.25;;;;;;;-5.99;81.35;97108.50;5060339;28;20041;-61
2021/01/11 04:50:21;;;;;;;40.92;16.67;;;;;;;-6.02;81.71;97119.66;5055420;28;20045;-61
2021/01/11 04:52:47;;;;;;;36.35;16.20;;;;;;;-5.95;81.14;97118.38;5055478;28;20036;-61
2021/01/11 04:55:13;;;;;;;38.67;15.55;;;;;;;-5.99;80.91;97111.19;5055654;28;20504;-61
2021/01/11 04:57:55;;;;;;;40.45;15.20;;;;;;;-5.98;81.10;97116.25;5060325;28;20038;-60
2021/01/11 05:00:29;;;;;;;36.60;15.88;;;;;;;-5.96;81.11;97113.31;5055540;28;20518;-63
2021/01/11 05:03:06;;;;;;;33.85;13.85;;;;;;;-5.98;80.36;97124.25;5059941;28;20032;-62
2021/01/11 05:05:34;;;;;;;37.53;15.60;;;;;;;-6.01;81.11;97118.63;5058949;28;20516;-62
2021/01/11 05:08:00;;;;;;;34.63;16.33;;;;;;;-5.99;80.97;97127.19;5059155;28;20520;-63
2021/01/11 05:10:31;;;;;;;37.05;16.85;;;;;;;-6.02;81.20;97117.00;5054898;28;20044;-62
2021/01/11 05:12:58;;;;;;;41.35;16.73;;;;;;;-6.00;81.22;97123.69;5059970;28;20144;-63
2021/01/11 05:15:25;;;;;;;32.35;13.80;;;;;;;-5.87;81.13;97135.81;5055651;28;20583;-63
2021/01/11 05:17:51;;;;;;;30.63;14.10;;;;;;;-5.77;79.92;97138.59;5063316;28;20036;-63
2021/01/11 05:20:22;;;;;;;34.55;14.48;;;;;;;-5.71;79.69;97139.44;5068687;28;20134;-63
2021/01/11 05:22:47;;;;;;;35.38;13.98;;;;;;;-5.71;79.68;97141.31;5063680;28;20044;-63
2021/01/11 05:25:24;;;;;;;37.20;15.15;;;;;;;-5.76;79.50;97139.41;5055067;28;20036;-63
2021/01/11 05:28:06;;;;;;;38.22;16.58;;;;;;;-5.88;81.00;97138.75;5061043;28;20045;-62
2021/01/11 05:30:40;;;;;;;36.78;16.20;;;;;;;-6.00;81.19;97137.03;5078754;28;20051;-63
2021/01/11 05:33:07;;;;;;;36.53;15.43;;;;;;;-5.98;81.42;97137.59;5075478;28;20119;-61
2021/01/11 05:35:34;;;;;;;36.33;14.70;;;;;;;-6.06;81.40;97143.38;5081104;28;20040;-61
2021/01/11 05:37:59;;;;;;;35.95;15.85;;;;;;;-6.07;81.26;97152.41;5080614;28;20051;-63
2021/01/11 05:40:28;;;;;;;45.92;17.85;;;;;;;-6.09;80.77;97151.06;5061473;28;20041;-61
2021/01/11 05:42:59;;;;;;;35.53;14.82;;;;;;;-6.09;80.91;97149.19;5074177;28;20104;-63
2021/01/11 05:45:33;;;;;;;38.45;16.65;;;;;;;-6.14;80.99;97149.13;5070176;28;20040;-61
2021/01/11 05:48:10;;;;;;;33.00;14.77;;;;;;;-6.17;80.95;97150.44;5064549;28;20040;-60
2021/01/11 05:50:41;;;;;;;36.15;16.50;;;;;;;-6.21;80.92;97140.50;5059904;28;20096;-60
2021/01/11 05:53:17;;;;;;;39.20;17.48;;;;;;;-6.25;81.54;97156.19;5031865;28;20129;-61
2021/01/11 05:55:43;;;;;;;40.83;17.60;;;;;;;-6.26;81.56;97145.78;5059141;28;20051;-61
2021/01/11 05:58:08;;;;;;;39.78;16.13;;;;;;;-6.29;81.37;97154.28;5072650;28;20041;-61
2021/01/11 06:00:36;;;;;;;36.38;16.25;;;;;;;-6.29;81.21;97157.75;5065376;28;20126;-63
2021/01/11 06:03:02;;;;;;;39.83;16.00;;;;;;;-6.30;81.57;97164.13;5060998;28;20095;-63
2021/01/11 06:05:30;;;;;;;42.65;16.40;;;;;;;-6.31;81.52;97172.38;5038237;28;20533;-62
2021/01/11 06:07:56;;;;;;;37.88;15.27;;;;;;;-6.35;81.55;97172.88;5040943;28;20045;-64
2021/01/11 06:10:23;;;;;;;39.03;15.90;;;;;;;-6.32;81.46;97176.09;5044303;28;20547;-61
2021/01/11 06:12:49;;;;;;;39.72;15.43;;;;;;;-6.32;81.37;97174.22;5060056;28;20519;-63
2021/01/11 06:15:17;;;;;;;36.05;15.27;;;;;;;-6.33;81.45;97167.28;5055144;28;20124;-63
2021/01/11 06:17:44;;;;;;;43.10;17.88;;;;;;;-6.32;81.67;97166.22;5059769;28;20039;-61
2021/01/11 06:20:19;;;;;;;35.58;16.88;;;;;;;-6.27;80.92;97176.94;5045707;28;20048;-63
2021/01/11 06:22:44;;;;;;;40.28;15.55;;;;;;;-6.21;80.84;97189.31;5028568;28;20041;-63
2021/01/11 06:25:18;;;;;;;42.25;17.90;;;;;;;-6.21;81.58;97193.81;5043202;28;20060;-62
2021/01/11 06:28:02;;;;;;;38.65;17.40;;;;;;;-6.06;81.10;97194.03;5043661;28;20091;-62
2021/01/11 06:30:34;;;;;;;45.53;18.55;;;;;;;-6.14;81.60;97199.78;5039313;28;20052;-62
2021/01/11 06:33:14;;;;;;;43.20;16.52;;;;;;;-6.08;81.59;97201.47;5046183;28;20032;-62
2021/01/11 06:35:48;;;;;;;40.72;17.80;;;;;;;-6.06;80.91;97199.38;5058593;28;20072;-61
2021/01/11 06:38:29;;;;;;;38.33;15.98;;;;;;;-6.11;81.09;97201.97;5045115;28;20536;-64
2021/01/11 06:41:03;;;;;;;38.90;18.02;;;;;;;-6.15;81.35;97204.31;5063831;28;20040;-61
2021/01/11 06:43:38;;;;;;;41.33;19.52;;;;;;;-6.16;81.41;97200.06;5061765;28;20036;-62
2021/01/11 06:46:06;;;;;;;46.72;19.48;;;;;;;-6.18;81.57;97204.81;5059342;28;20037;-62
2021/01/11 06:48:33;;;;;;;43.33;16.23;;;;;;;-6.19;81.74;97200.53;5058489;28;20447;-60
2021/01/11 06:51:08;;;;;;;43.00;17.48;;;;;;;-6.23;81.54;97207.44;5059479;28;20132;-62
2021/01/11 06:53:33;;;;;;;39.53;17.30;;;;;;;-6.14;82.03;97199.78;5062927;28;20143;-60
2021/01/11 06:56:10;;;;;;;46.00;18.40;;;;;;;-6.22;81.96;97201.03;5057756;28;20172;-60
2021/01/11 06:58:37;;;;;;;48.88;20.05;;;;;;;-6.21;82.08;97201.81;5062612;28;20045;-64
2021/01/11 07:01:08;;;;;;;52.70;21.17;;;;;;;-6.30;82.04;97203.31;5060391;28;20044;-61
2021/01/11 07:03:47;;;;;;;49.92;22.45;;;;;;;-6.37;82.53;97196.28;5060928;28;20044;-60
2021/01/11 07:06:41;;;;;;;50.00;20.15;;;;;;;-6.41;82.93;97199.69;5057942;28;20052;-61
2021/01/11 07:09:13;;;;;;;43.53;18.25;;;;;;;-6.43;82.72;97202.59;5055252;28;20045;-61
2021/01/11 07:11:41;;;;;;;48.30;20.75;;;;;;;-6.43;82.76;97205.25;5060699;28;20044;-61
2021/01/11 07:14:07;;;;;;;46.90;18.88;;;;;;;-6.44;82.76;97201.00;5055561;28;20045;-59
2021/01/11 07:16:41;;;;;;;48.40;20.50;;;;;;;-6.43;82.76;97207.13;5061022;28;20130;-62
2021/01/11 07:19:08;;;;;;;52.90;19.75;;;;;;;-6.46;83.08;97205.78;5035113;28;20044;-62
2021/01/11 07:21:37;;;;;;;60.33;22.30;;;;;;;-6.39;83.03;97210.91;5052309;28;20052;-61
2021/01/11 07:24:05;;;;;;;50.08;19.67;;;;;;;-6.36;83.05;97218.41;5061736;28;20051;-60
2021/01/11 07:26:32;;;;;;;45.08;17.88;;;;;;;-6.39;83.13;97221.56;5061646;28;20040;-62
2021/01/11 07:29:08;;;;;;;54.10;23.83;;;;;;;-6.27;82.33;97222.28;5058948;28;20076;-62
2021/01/11 07:31:35;;;;;;;48.47;22.15;;;;;;;-6.36;82.87;97226.41;5059550;28;20524;-60
2021/01/11 07:34:06;;;;;;;51.35;24.52;;;;;;;-6.41;82.78;97229.84;5051446;28;20460;-62
2021/01/11 07:36:43;;;;;;;51.22;20.23;;;;;;;-6.43;83.21;97244.44;5058015;28;20051;-61
2021/01/11 07:39:15;;;;;;;51.35;21.20;;;;;;;-6.46;83.33;97244.91;5056728;28;20040;-61
2021/01/11 07:41:52;;;;;;;46.20;20.17;;;;;;;-6.43;83.55;97241.78;5060361;28;20370;-61
2021/01/11 07:44:25;;;;;;;56.45;24.48;;;;;;;-6.51;83.35;97244.88;5053259;28;20083;-60
2021/01/11 07:46:51;;;;;;;45.03;19.15;;;;;;;-6.34;83.20;97253.63;5059527;28;20041;-62
2021/01/11 07:49:17;;;;;;;48.88;20.48;;;;;;;-6.35;82.84;97250.16;5056302;28;20093;-61
2021/01/11 07:51:46;;;;;;;52.33;21.00;;;;;;;-6.39;82.03;97249.06;5057540;28;20044;-61
2021/01/11 07:54:16;;;;;;;;;;;;;;;-6.39;82.45;97243.72;5057333;28;20048;-62
2021/01/11 07:56:41;;;;;;;;;;;;;;;-6.42;82.59;97248.72;5061959;28;19916;-62
2021/01/11 07:59:07;;;;;;;50.17;20.23;;;;;;;-6.46;82.99;97242.25;5033370;28;20373;-61
2021/01/11 08:01:34;;;;;;;41.67;18.60;;;;;;;-6.53;82.90;97243.25;5064087;28;20087;-62
2021/01/11 08:04:00;;;;;;;55.60;21.20;;;;;;;-6.62;82.90;97249.22;5062471;28;20076;-60
2021/01/11 08:06:25;;;;;;;45.25;19.17;;;;;;;-6.61;82.75;97248.16;5039101;28;20081;-61
2021/01/11 08:08:53;;;;;;;42.30;18.20;;;;;;;-6.55;82.54;97249.88;5052301;28;20052;-63
2021/01/11 08:11:20;;;;;;;51.08;18.70;;;;;;;-6.45;82.25;97247.34;5053856;28;20105;-61
2021/01/11 08:13:45;;;;;;;42.90;16.52;;;;;;;-6.44;82.61;97258.84;5061514;28;20052;-59
2021/01/11 08:16:13;;;;;;;47.95;19.20;;;;;;;-6.28;81.01;97249.19;5050633;28;20044;-61
2021/01/11 08:18:42;;;;;;;40.75;18.52;;;;;;;-6.41;81.81;97258.31;5053209;28;20047;-59
2021/01/11 08:21:09;;;;;;;47.20;19.00;;;;;;;-5.96;80.85;97257.34;5054473;28;20527;-60
2021/01/11 08:23:35;;;;;;;43.72;16.45;;;;;;;-5.64;78.89;97254.81;5055702;28;20081;-59
2021/01/11 08:26:10;;;;;;;42.88;17.08;;;;;;;-5.92;78.90;97253.13;5062650;28;20039;-63
2021/01/11 08:28:37;;;;;;;47.70;17.70;;;;;;;-5.93;79.71;97261.38;5055781;28;20051;-61
2021/01/11 08:31:03;;;;;;;42.55;17.30;;;;;;;-5.68;78.27;97251.03;5058512;28;20043;-61
2021/01/11 08:33:31;;;;;;;41.65;16.42;;;;;;;-5.70;78.41;97257.69;5054199;28;20731;-60
2021/01/11 08:36:23;;;;;;;41.58;20.02;;;;;;;-5.88;79.29;97250.78;5041364;28;20048;-60
2021/01/11 08:39:07;;;;;;;50.33;22.25;;;;;;;-6.33;80.35;97244.59;5047066;28;20072;-60
2021/01/11 08:41:33;;;;;;;55.65;26.67;;;;;;;-6.43;81.53;97252.44;5055804;28;20389;-60
2021/01/11 08:43:59;;;;;;;51.80;21.08;;;;;;;-6.38;81.40;97247.19;5060204;28;20068;-61
2021/01/11 08:46:52;;;;;;;43.55;19.58;;;;;;;-6.32;81.33;97261.38;5045191;28;20140;-61
2021/01/11 08:49:18;;;;;;;44.47;18.58;;;;;;;-6.17;80.58;97265.09;5053628;28;20512;-60
2021/01/11 08:51:44;;;;;;;41.15;17.60;;;;;;;-5.80;79.85;97258.34;5058374;28;20044;-61
2021/01/11 08:54:09;;;;;;;41.40;16.13;;;;;;;-5.75;79.24;97266.41;5042838;28;20049;-63
2021/01/11 08:56:36;;;;;;;41.65;16.00;;;;;;;-5.69;78.50;97264.59;5059534;28;20044;-60
2021/01/11 08:59:01;;;;;;;45.75;18.30;;;;;;;-5.78;78.83;97274.91;5057744;28;20543;-60
2021/01/11 09:01:34;;;;;;;39.53;18.17;;;;;;;-5.92;79.14;97277.16;5051637;28;20056;-59
2021/01/11 09:03:59;;;;;;;43.92;16.63;;;;;;;-5.72;78.31;97279.25;5059160;28;20044;-61
2021/01/11 09:06:39;;;;;;;40.28;17.98;;;;;;;-5.90;79.51;97279.56;5054007;28;20048;-63
2021/01/11 09:09:05;;;;;;;41.08;16.50;;;;;;;-5.50;78.93;97276.59;5045452;28;20152;-60
2021/01/11 09:11:30;;;;;;;40.95;16.55;;;;;;;-5.52;78.47;97276.03;5054291;28;20049;-62
2021/01/11 09:14:07;;;;;;;42.80;16.58;;;;;;;-5.55;79.25;97294.41;5058103;28;20129;-62
2021/01/11 09:16:33;;;;;;;45.22;19.30;;;;;;;-5.81;79.65;97294.09;5058639;28;20127;-60
2021/01/11 09:19:10;;;;;;;37.90;16.10;;;;;;;-5.93;79.90;97293.38;5059953;28;20059;-62
2021/01/11 09:21:36;;;;;;;43.08;18.83;;;;;;;-5.93;79.73;97291.53;5039822;28;20136;-63
2021/01/11 09:24:02;;;;;;;46.38;18.65;;;;;;;-5.97;79.90;97299.25;5050159;28;20048;-60
2021/01/11 09:26:32;;;;;;;43.97;18.52;;;;;;;-5.99;79.40;97296.00;5054261;28;20109;-61
2021/01/11 09:28:58;;;;;;;42.50;18.02;;;;;;;-5.79;78.48;97298.13;5060065;28;20044;-61
2021/01/11 09:31:23;;;;;;;46.05;20.42;;;;;;;-5.90;79.74;97304.38;5052944;28;20506;-62
2021/01/11 09:33:48;;;;;;;42.10;17.70;;;;;;;-5.56;78.13;97304.28;5060257;28;20121;-62
2021/01/11 09:36:14;;;;;;;44.20;18.05;;;;;;;-5.49;77.47;97310.25;5062107;28;20877;-62
2021/01/11 09:38:39;;;;;;;45.80;17.88;;;;;;;-5.34;77.14;97311.50;5054761;28;20048;-61
2021/01/11 09:41:05;;;;;;;42.78;16.98;;;;;;;-5.50;77.10;97318.50;5055756;28;20048;-62
2021/01/11 09:43:30;;;;;;;41.67;17.33;;;;;;;-5.55;77.48;97313.09;5058791;28;20081;-61
2021/01/11 09:45:55;;;;;;;48.65;20.00;;;;;;;-5.39;77.15;97315.69;5060242;28;20084;-59
2021/01/11 09:48:21;;;;;;;49.10;19.65;;;;;;;-5.25;77.18;97323.34;5054344;28;20615;-62
2021/01/11 09:50:47;;;;;;;39.70;18.02;;;;;;;-5.35;77.11;97323.22;5062679;28;20093;-61
2021/01/11 09:53:12;;;;;;;42.17;18.48;;;;;;;-5.41;77.54;97315.13;5050587;28;20109;-60
2021/01/11 09:55:39;;;;;;;43.10;18.23;;;;;;;-5.38;77.78;97309.31;5077065;28;20079;-63
2021/01/11 09:58:05;;;;;;;43.13;16.27;;;;;;;-5.19;77.05;97323.13;5072159;28;20041;-62
2021/01/11 10:00:30;;;;;;;40.15;16.63;;;;;;;-5.04;76.48;97313.69;5067757;28;20048;-61
2021/01/11 10:02:56;;;;;;;42.13;18.70;;;;;;;-5.18;76.67;97310.59;5064548;28;20041;-64
2021/01/11 10:05:22;;;;;;;37.42;16.60;;;;;;;-5.22;76.21;97310.31;5058484;28;20964;-62
2021/01/11 10:07:50;;;;;;;39.88;16.00;;;;;;;-5.11;75.99;97303.22;5064855;28;20041;-62
2021/01/11 10:10:15;;;;;;;45.97;20.55;;;;;;;-5.26;76.68;97297.69;5058603;28;20040;-62
2021/01/11 10:12:41;;;;;;;41.75;17.08;;;;;;;-5.02;76.21;97284.88;5034965;28;20577;-62
2021/01/11 10:15:07;;;;;;;36.35;15.75;;;;;;;-4.82;74.52;97284.25;5052978;28;20041;-62
2021/01/11 10:17:33;;;;;;;39.50;15.77;;;;;;;-4.63;73.21;97282.00;5063511;28;20041;-62
2021/01/11 10:19:58;;;;;;;47.83;19.17;;;;;;;-4.77;74.35;97286.16;5062390;28;20044;-62
2021/01/11 10:22:24;;;;;;;41.95;17.63;;;;;;;-4.83;74.11;97288.78;5057428;28;20301;-62
2021/01/11 10:24:50;;;;;;;49.45;20.80;;;;;;;-4.82;74.93;97293.06;5062388;28;20086;-61
2021/01/11 10:27:17;;;;;;;50.08;22.23;;;;;;;-4.58;73.86;97281.25;5053497;28;20056;-64
2021/01/11 10:29:42;;;;;;;42.30;20.75;;;;;;;-4.38;73.09;97275.25;5056550;28;20111;-61
2021/01/11 10:32:08;;;;;;;40.17;18.48;;;;;;;-4.77;74.66;97270.13;5056696;28;20036;-63
2021/01/11 10:34:33;;;;;;;38.63;15.85;;;;;;;-4.43;73.46;97268.00;5053824;28;20514;-63
2021/01/11 10:36:58;;;;;;;32.40;14.77;;;;;;;-4.30;73.26;97274.81;5050580;28;20140;-63
2021/01/11 10:39:25;;;;;;;32.83;15.02;;;;;;;-4.51;73.40;97265.81;5075551;28;20044;-61
2021/01/11 10:41:56;;;;;;;34.47;15.75;;;;;;;-4.17;72.62;97265.53;5076443;28;20047;-61
2021/01/11 10:44:22;;;;;;;34.00;14.18;;;;;;;-3.88;71.62;97260.59;5058262;28;20059;-63
2021/01/11 10:46:52;;;;;;;39.22;16.50;;;;;;;-3.86;70.29;97258.47;5062601;28;20040;-62
2021/01/11 10:49:18;;;;;;;41.22;20.25;;;;;;;-4.16;71.02;97261.75;5055546;28;20037;-59
2021/01/11 10:51:45;;;;;;;29.60;14.07;;;;;;;-4.75;72.61;97254.63;5059446;28;20041;-60
2021/01/11 10:54:11;;;;;;;31.80;12.85;;;;;;;-4.17;71.39;97249.47;5057118;28;20094;-62
2021/01/11 10:56:36;;;;;;;28.85;12.10;;;;;;;-3.44;67.93;97248.75;5062289;28;20037;-62
2021/01/11 10:59:02;;;;;;;26.80;12.73;;;;;;;-3.05;66.20;97249.13;5055528;28;20070;-61
2021/01/11 11:01:27;;;;;;;28.52;11.25;;;;;;;-2.78;64.28;97243.53;5056076;28;20047;-64
2021/01/11 11:03:52;;;;;;;30.67;13.75;;;;;;;-2.67;64.84;97249.69;5059201;28;20064;-60
2021/01/11 11:06:22;;;;;;;34.38;12.65;;;;;;;-2.42;63.97;97250.78;5058157;28;20052;-61
2021/01/11 11:08:48;;;;;;;;;;;;;;;-2.46;63.70;97250.50;5058680;28;20052;-60
2021/01/11 11:11:13;;;;;;;27.85;12.85;;;;;;;-2.27;63.47;97248.06;5054528;28;19912;-62
2021/01/11 11:13:39;;;;;;;28.30;12.88;;;;;;;-1.90;62.66;97227.34;5054270;28;20049;-61
2021/01/11 11:16:06;;;;;;;27.13;11.90;;;;;;;-2.87;64.95;97242.44;5055429;28;20569;-62
2021/01/11 11:18:36;;;;;;;25.25;13.57;;;;;;;-3.30;65.88;97233.78;5052930;28;20053;-60
2021/01/11 11:21:04;;;;;;;29.88;14.07;;;;;;;-2.62;65.58;97230.13;5060172;28;20037;-60
2021/01/11 11:23:30;;;;;;;36.65;15.43;;;;;;;-3.08;66.94;97233.56;5064491;28;20049;-61